Time;durP1;ratioP1;P1;durP2;ratioP2;P2;SDS_P1;SDS_P2;PMS_P1;PMS_P2;Temp;Humidity;BMP_temperature;BMP_pressure;BME280_temperature;BME280_humidity;BME280_pressure;Samples;Min_cycle;Max_cycle;Signal;HPM_P1;HPM_P2
2022/11/07 00:00:09;;;;;;;2.30;2.00;;;8.90;99.90;;;;;;6244823;23;20047;-80
2022/11/07 00:03:11;;;;;;;1.95;1.40;;;8.80;1.00;;;;;;6244529;22;20028;-80
2022/11/07 00:06:02;;;;;;;5.15;1.92;;;8.90;1.00;;;;;;6244750;23;20107;-81
2022/11/07 00:08:52;;;;;;;4.32;1.67;;;8.90;92.20;;;;;;6245397;23;20051;-80
2022/11/07 00:11:53;;;;;;;1.73;1.55;;;8.90;99.90;;;;;;6244285;23;20121;-81
2022/11/07 00:14:55;;;;;;;3.30;1.95;;;8.80;99.90;;;;;;6244841;23;20076;-80
2022/11/07 00:17:46;;;;;;;3.50;1.90;;;8.80;99.90;;;;;;6246280;23;20099;-81
2022/11/07 00:20:33;;;;;;;2.15;1.95;;;8.80;1.00;;;;;;6245255;23;20024;-80
2022/11/07 00:23:41;;;;;;;2.78;2.10;;;8.70;99.90;;;;;;6240888;22;20062;-80
2022/11/07 00:26:28;;;;;;;3.83;1.83;;;8.70;1.00;;;;;;6245005;23;20062;-80
2022/11/07 00:29:20;;;;;;;1.98;1.70;;;8.70;5.40;;;;;;6245173;23;20131;-80
2022/11/07 00:32:17;;;;;;;3.22;2.08;;;8.70;99.90;;;;;;6247049;22;20048;-80
2022/11/07 00:35:07;;;;;;;2.53;1.80;;;8.70;99.90;;;;;;6245351;23;20028;-80
2022/11/07 00:37:57;;;;;;;4.38;1.80;;;8.70;1.00;;;;;;6246771;22;20051;-79
2022/11/07 00:41:12;;;;;;;2.05;1.85;;;8.70;99.90;;;;;;6244398;23;20048;-80
2022/11/07 00:44:00;;;;;;;2.70;2.03;;;8.70;1.00;;;;;;6245513;23;20107;-79
2022/11/07 00:46:50;;;;;;;2.55;2.00;;;8.70;1.00;;;;;;6245352;23;20424;-81
2022/11/07 00:49:40;;;;;;;1.85;1.70;;;8.60;99.90;;;;;;6245099;23;20047;-81
2022/11/07 00:52:30;;;;;;;2.50;2.20;;;8.50;99.90;;;;;;6246184;23;20339;-80
2022/11/07 00:55:17;;;;;;;3.38;1.80;;;8.40;1.00;;;;;;6245499;23;20024;-80
2022/11/07 00:58:09;;;;;;;2.95;2.03;;;8.40;99.90;;;;;;6245163;23;20024;-80
2022/11/07 01:01:29;;;;;;;2.97;1.88;;;8.30;99.90;;;;;;6245254;23;20032;-81
2022/11/07 01:07:25;;;;;;;3.50;2.03;;;8.20;1.00;;;;;;6247295;23;20113;-80
2022/11/07 01:10:14;;;;;;;8.07;2.53;;;8.20;78.50;;;;;;6245944;23;20050;-80
2022/11/07 01:13:07;;;;;;;3.25;2.42;;;8.20;99.90;;;;;;6247135;23;20099;-80
2022/11/07 01:15:54;;;;;;;4.07;2.20;;;8.20;99.90;;;;;;6246138;23;20024;-81
2022/11/07 01:18:47;;;;;;;3.63;2.28;;;8.20;99.90;;;;;;6245094;23;20031;-80
2022/11/07 01:21:42;;;;;;;3.15;2.17;;;8.30;99.90;;;;;;6246819;23;20036;-80
2022/11/07 01:24:29;;;;;;;3.90;2.20;;;8.30;99.90;;;;;;6245880;23;20103;-81
2022/11/07 01:27:19;;;;;;;2.75;2.30;;;8.30;99.90;;;;;;6247869;23;20103;-81
2022/11/07 01:30:10;;;;;;;3.67;2.25;;;8.30;99.90;;;;;;6246720;23;20020;-80
2022/11/07 01:32:57;;;;;;;6.65;2.53;;;8.20;99.90;;;;;;6247664;23;20435;-79
2022/11/07 01:35:47;;;;;;;3.22;1.88;;;8.20;99.90;;;;;;6244700;23;20094;-81
2022/11/07 01:38:44;;;;;;;2.58;2.03;;;8.20;99.90;;;;;;6246794;23;20421;-81
2022/11/07 01:41:35;;;;;;;3.97;2.90;;;8.10;99.90;;;;;;6246336;23;20051;-80
2022/11/07 01:44:27;;;;;;;4.30;2.30;;;8.10;99.90;;;;;;6248547;22;20020;-80
2022/11/07 01:47:18;;;;;;;2.47;2.25;;;8.10;99.90;;;;;;6248603;22;20030;-81
2022/11/07 01:50:09;;;;;;;5.30;2.40;;;8.20;99.90;;;;;;6248548;23;20435;-80
2022/11/07 01:53:10;;;;;;;4.82;3.22;;;8.20;99.90;;;;;;6246313;23;20046;-81
2022/11/07 01:56:12;;;;;;;2.38;1.92;;;8.20;99.90;;;;;;6244966;23;20024;-81
2022/11/07 01:59:07;;;;;;;7.07;2.10;;;8.20;99.90;;;;;;6244987;23;20431;-81
2022/11/07 02:01:58;;;;;;;5.53;2.17;;;8.20;99.90;;;;;;6245293;23;20034;-80
2022/11/07 02:04:45;;;;;;;6.05;2.53;;;8.20;99.90;;;;;;6245401;23;20374;-80
2022/11/07 02:07:45;;;;;;;4.57;2.40;;;8.30;99.90;;;;;;6247010;23;20063;-80
2022/11/07 02:11:06;;;;;;;2.60;2.10;;;8.40;99.90;;;;;;6245088;23;20020;-81
2022/11/07 02:13:57;;;;;;;3.33;2.47;;;8.40;79.90;;;;;;6246025;23;20024;-80
2022/11/07 02:16:45;;;;;;;5.70;2.38;;;8.50;8.10;;;;;;6246222;23;20434;-81
2022/11/07 02:19:34;;;;;;;4.97;2.28;;;8.50;1.00;;;;;;6247964;22;20066;-81
2022/11/07 02:22:46;;;;;;;5.53;2.00;;;8.50;1.00;;;;;;6245834;23;20111;-81
2022/11/07 02:25:36;;;;;;;3.70;2.42;;;8.60;99.90;;;;;;6246824;23;20028;-81
2022/11/07 02:28:28;;;;;;;5.60;2.13;;;8.60;99.90;;;;;;6245761;23;20107;-81
2022/11/07 02:31:15;;;;;;;5.18;2.80;;;8.60;99.90;;;;;;6245740;23;20034;-81
2022/11/07 02:34:05;;;;;;;2.45;2.08;;;8.60;30.50;;;;;;6246521;23;20636;-81
2022/11/07 02:36:56;;;;;;;5.45;2.28;;;8.60;1.00;;;;;;6246634;23;20048;-80
2022/11/07 02:39:43;;;;;;;2.70;1.95;;;8.70;99.90;;;;;;6246420;23;20020;-80
2022/11/07 02:42:42;;;;;;;1.98;1.77;;;8.70;99.90;;;;;;6245656;23;20454;-81
2022/11/07 02:45:41;;;;;;;3.60;1.90;;;8.70;1.00;;;;;;6245526;23;20048;-81
2022/11/07 02:48:45;;;;;;;3.53;2.28;;;8.70;99.90;;;;;;6247772;22;20119;-81
2022/11/07 02:51:32;;;;;;;5.05;2.03;;;8.60;99.90;;;;;;6246248;23;20111;-81
2022/11/07 02:54:22;;;;;;;2.03;1.83;;;8.60;33.00;;;;;;6246324;23;20348;-81
2022/11/07 02:57:15;;;;;;;2.85;1.65;;;8.60;1.00;;;;;;6245311;23;20052;-81
2022/11/07 03:00:12;;;;;;;4.43;1.83;;;8.60;99.90;;;;;;6245823;23;20024;-81
2022/11/07 03:03:12;;;;;;;4.32;2.10;;;8.60;99.90;;;;;;6245836;23;20110;-82
2022/11/07 03:06:00;;;;;;;3.33;1.77;;;8.60;1.00;;;;;;6246017;23;20175;-81
2022/11/07 03:08:53;;;;;;;4.80;2.15;;;8.60;99.90;;;;;;6246719;23;20024;-81
2022/11/07 03:11:46;;;;;;;3.13;1.70;;;8.70;99.90;;;;;;6243756;23;20038;-80
2022/11/07 03:14:39;;;;;;;5.80;1.80;;;8.70;1.00;;;;;;6245000;23;20052;-81
2022/11/07 03:17:28;;;;;;;2.58;1.30;;;8.80;99.90;;;;;;6245151;23;20035;-80
2022/11/07 03:20:16;;;;;;;6.00;1.80;;;8.80;60.30;;;;;;6244771;23;20131;-81
2022/11/07 03:23:06;;;;;;;4.72;2.00;;;8.80;1.00;;;;;;6245962;23;20046;-80
2022/11/07 03:25:53;;;;;;;4.60;1.88;;;8.80;99.90;;;;;;6246322;23;20113;-80
2022/11/07 03:28:40;;;;;;;5.97;2.08;;;8.80;99.90;;;;;;6244916;23;20404;-81
2022/11/07 03:31:33;;;;;;;3.33;1.63;;;8.80;6.70;;;;;;6244407;23;20035;-81
2022/11/07 03:34:20;;;;;;;4.00;1.85;;;8.80;1.00;;;;;;6247075;22;20315;-81
2022/11/07 03:37:15;;;;;;;4.88;1.88;;;8.80;1.00;;;;;;6244706;23;20296;-80
2022/11/07 03:40:10;;;;;;;4.22;1.80;;;8.70;1.00;;;;;;6245603;23;20051;-81
2022/11/07 03:42:58;;;;;;;6.10;1.88;;;8.70;99.90;;;;;;6245558;23;20031;-81
2022/11/07 03:45:45;;;;;;;6.38;1.77;;;8.60;1.00;;;;;;6245059;23;20028;-81
2022/11/07 03:48:39;;;;;;;3.72;1.50;;;8.50;1.00;;;;;;6245911;23;20264;-81
2022/11/07 03:51:29;;;;;;;2.78;1.90;;;8.50;88.60;;;;;;6245183;23;20323;-79
2022/11/07 03:54:19;;;;;;;3.38;1.83;;;8.50;99.90;;;;;;6244712;23;20090;-79
2022/11/07 03:57:18;;;;;;;5.00;1.80;;;8.60;99.90;;;;;;6245498;23;20019;-79
2022/11/07 04:00:08;;;;;;;3.17;1.48;;;8.60;99.90;;;;;;6245341;23;20024;-79
2022/11/07 04:02:55;;;;;;;3.67;2.13;;;8.60;99.90;;;;;;6245811;23;20107;-79
2022/11/07 04:05:42;;;;;;;5.07;1.70;;;8.60;98.50;;;;;;6244145;23;20343;-81
2022/11/07 04:08:30;;;;;;;8.25;2.17;;;8.50;99.90;;;;;;6243628;23;20107;-79
2022/11/07 04:17:36;;;;;;;6.40;2.10;;;8.20;99.90;;;;;;6246066;23;20031;-78
2022/11/07 04:20:26;;;;;;;5.40;1.80;;;8.20;1.00;;;;;;6252453;23;20036;-79
2022/11/07 04:23:22;;;;;;;6.13;2.00;;;8.30;1.00;;;;;;6245530;23;20027;-80
2022/11/07 04:29:29;;;;;;;2.95;1.80;;;8.40;99.90;;;;;;6244096;23;19920;-81
2022/11/07 04:32:27;;;;;;;3.75;1.80;;;8.50;1.00;;;;;;6243923;23;20039;-80
2022/11/07 04:35:19;;;;;;;7.63;3.63;;;8.50;1.00;;;;;;6245275;23;20028;-80
2022/11/07 04:38:13;;;;;;;5.38;2.55;;;8.50;99.90;;;;;;6244336;23;20024;-80
2022/11/07 04:41:03;;;;;;;2.47;1.90;;;8.50;99.90;;;;;;6245159;23;20020;-80
2022/11/07 04:43:50;;;;;;;3.78;1.75;;;8.50;99.90;;;;;;6245417;23;20032;-80
2022/11/07 04:46:54;;;;;;;6.40;2.60;;;8.40;99.90;;;;;;6245329;23;20103;-79
2022/11/07 04:49:46;;;;;;;3.25;2.40;;;8.40;1.00;;;;;;6245129;23;20050;-81
2022/11/07 04:52:39;;;;;;;6.65;2.13;;;8.50;1.00;;;;;;6244989;23;20024;-80
2022/11/07 04:55:29;;;;;;;3.42;2.03;;;8.50;1.00;;;;;;6245499;23;20031;-79
2022/11/07 04:58:19;;;;;;;4.35;2.65;;;8.50;1.00;;;;;;6244919;23;20030;-79
2022/11/07 05:01:06;;;;;;;11.80;7.38;;;8.40;1.00;;;;;;6245157;23;20024;-80
2022/11/07 05:03:53;;;;;;;5.32;2.35;;;8.40;1.00;;;;;;6244753;23;20051;-80
2022/11/07 05:06:41;;;;;;;7.80;2.60;;;8.50;95.90;;;;;;6244941;23;20103;-80
2022/11/07 05:09:30;;;;;;;7.30;2.58;;;8.50;99.90;;;;;;6243988;23;20052;-80
2022/11/07 05:12:18;;;;;;;6.20;3.17;;;8.40;99.90;;;;;;6247019;22;20052;-80
2022/11/07 05:15:14;;;;;;;3.58;1.98;;;8.40;99.90;;;;;;6243481;23;20099;-80
2022/11/07 05:18:04;;;;;;;6.75;2.22;;;8.30;1.00;;;;;;6246923;22;20020;-81
2022/11/07 05:20:51;;;;;;;8.82;2.88;;;8.10;99.90;;;;;;6244173;23;20322;-80
2022/11/07 05:23:41;;;;;;;7.22;2.50;;;8.10;99.90;;;;;;6245084;23;20036;-80
2022/11/07 05:26:34;;;;;;;4.57;2.50;;;8.10;99.90;;;;;;6245476;23;20048;-80
2022/11/07 05:29:22;;;;;;;9.10;2.80;;;8.10;99.90;;;;;;6242431;23;20106;-80
2022/11/07 05:32:11;;;;;;;8.23;2.83;;;8.10;1.00;;;;;;6243126;23;20020;-79
2022/11/07 05:34:58;;;;;;;5.13;3.28;;;8.20;99.90;;;;;;6245384;23;20020;-80
2022/11/07 05:37:47;;;;;;;9.95;3.10;;;8.20;99.90;;;;;;6245351;23;20020;-78
2022/11/07 05:40:37;;;;;;;5.63;2.35;;;8.40;91.50;;;;;;6243840;23;20113;-78
2022/11/07 05:43:24;;;;;;;8.40;2.22;;;8.60;1.00;;;;;;6246709;22;20420;-79
2022/11/07 05:46:14;;;;;;;4.35;1.95;;;8.80;1.00;;;;;;6245820;23;20347;-78
2022/11/07 05:49:01;;;;;;;4.47;1.95;;;8.90;1.00;;;;;;6247057;23;20028;-79
2022/11/07 05:51:49;;;;;;;6.97;2.05;;;8.90;52.80;;;;;;6244442;23;20020;-78
2022/11/07 05:54:36;;;;;;;5.03;1.83;;;9.00;99.90;;;;;;6244095;23;20038;-79
2022/11/07 05:57:41;;;;;;;7.18;1.90;;;9.10;78.50;;;;;;6246104;23;20095;-79
2022/11/07 06:00:31;;;;;;;5.05;1.92;;;9.00;1.00;;;;;;6245332;23;20024;-79
2022/11/07 06:03:21;;;;;;;8.75;2.17;;;9.00;99.90;;;;;;6246323;23;20055;-79
2022/11/07 06:06:11;;;;;;;5.93;1.80;;;9.20;99.90;;;;;;6247179;23;20044;-80
2022/11/07 06:09:13;;;;;;;8.90;2.10;;;9.20;1.00;;;;;;6247028;23;20024;-81
2022/11/07 06:12:07;;;;;;;8.40;1.97;;;9.20;1.00;;;;;;6247138;23;20064;-80
2022/11/07 06:15:20;;;;;;;4.20;1.80;;;9.20;99.90;;;;;;6247700;23;20024;-82
2022/11/07 06:18:20;;;;;;;5.85;1.90;;;9.30;99.90;;;;;;6246157;23;20031;-81
2022/11/07 06:21:07;;;;;;;4.90;2.22;;;9.30;99.90;;;;;;6247876;23;20031;-81
2022/11/07 06:24:01;;;;;;;4.43;1.98;;;9.30;99.90;;;;;;6246302;23;20077;-81
2022/11/07 06:27:03;;;;;;;5.15;2.20;;;9.40;65.60;;;;;;6245515;23;20031;-80
2022/11/07 06:29:50;;;;;;;6.20;1.90;;;9.40;1.00;;;;;;6245546;23;20090;-81
2022/11/07 06:33:06;;;;;;;11.77;3.13;;;9.50;1.00;;;;;;6246051;23;20102;-80
2022/11/07 06:35:54;;;;;;;4.82;1.92;;;9.60;99.90;;;;;;6247943;22;20074;-82
2022/11/07 06:38:41;;;;;;;10.05;2.85;;;9.70;99.90;;;;;;6245686;23;20115;-82
2022/11/07 06:41:28;;;;;;;7.68;2.13;;;9.60;97.20;;;;;;6246950;23;20028;-81
2022/11/07 06:44:16;;;;;;;8.52;2.22;;;9.60;30.30;;;;;;6245987;22;20032;-82
2022/11/07 06:47:13;;;;;;;8.10;2.15;;;9.50;10.20;;;;;;6245365;23;20028;-84
2022/11/07 06:50:02;;;;;;;6.90;2.30;;;9.50;4.90;;;;;;6238635;23;20024;-87
2022/11/07 06:53:06;;;;;;;10.15;3.00;;;9.50;4.60;;;;;;6246203;23;20096;-82
2022/11/07 06:56:00;;;;;;;8.20;3.22;;;9.50;1.00;;;;;;6247602;23;20095;-82
2022/11/07 06:58:47;;;;;;;8.68;2.58;;;9.60;1.00;;;;;;6245521;23;20027;-81
2022/11/07 07:01:34;;;;;;;5.55;2.30;;;9.50;1.00;;;;;;6245619;23;20020;-82
2022/11/07 07:04:22;;;;;;;5.90;2.42;;;9.50;1.00;;;;;;6245682;23;20036;-80
2022/11/07 07:07:13;;;;;;;6.15;1.80;;;9.50;1.00;;;;;;6245255;23;20035;-83
2022/11/07 07:10:05;;;;;;;6.25;2.05;;;9.50;1.00;;;;;;6243567;23;20035;-82
2022/11/07 07:12:55;;;;;;;10.43;2.75;;;9.60;1.00;;;;;;6245586;23;20060;-81
2022/11/07 07:15:50;;;;;;;5.25;2.05;;;9.60;1.00;;;;;;6245012;23;20047;-82
2022/11/07 07:18:40;;;;;;;6.90;2.55;;;9.60;1.00;;;;;;6244656;23;20379;-82
2022/11/07 07:21:27;;;;;;;12.73;3.00;;;9.60;1.00;;;;;;6248502;23;20103;-81
2022/11/07 07:24:17;;;;;;;7.85;2.10;;;9.60;1.00;;;;;;6247420;23;20027;-80
2022/11/07 07:27:12;;;;;;;3.65;2.05;;;9.70;1.00;;;;;;6250366;23;20059;-81
2022/11/07 07:29:59;;;;;;;8.43;2.28;;;9.70;1.00;;;;;;6249553;23;20031;-81
2022/11/07 07:32:58;;;;;;;6.32;2.65;;;9.70;1.00;;;;;;6246302;23;20046;-83
2022/11/07 07:35:50;;;;;;;7.60;2.42;;;9.70;99.90;;;;;;6246614;23;20038;-82
2022/11/07 07:38:38;;;;;;;6.70;2.53;;;9.80;99.90;;;;;;6247420;22;20103;-83
2022/11/07 07:41:30;;;;;;;7.90;2.92;;;9.80;99.90;;;;;;6246610;22;20024;-84
2022/11/07 07:44:25;;;;;;;11.57;2.88;;;9.80;99.90;;;;;;6244359;23;20020;-83
2022/11/07 07:47:15;;;;;;;8.65;3.47;;;9.90;99.90;;;;;;6246257;23;20188;-82
2022/11/07 07:50:04;;;;;;;8.18;2.50;;;9.90;99.90;;;;;;6245975;23;20095;-81
2022/11/07 07:53:00;;;;;;;8.20;2.80;;;10.00;99.90;;;;;;6246671;22;20103;-80
2022/11/07 07:55:56;;;;;;;;;;;10.10;99.90;;;;;;6245646;23;20038;-82
2022/11/07 07:58:43;;;;;;;7.28;2.17;;;10.20;12.20;;;;;;6244213;23;19919;-82
2022/11/07 08:01:37;;;;;;;11.55;2.30;;;10.30;1.00;;;;;;6245545;23;20024;-82
2022/11/07 08:04:27;;;;;;;8.70;2.45;;;10.40;1.00;;;;;;6246551;23;20020;-82
2022/11/07 08:07:28;;;;;;;8.93;2.05;;;10.40;99.90;;;;;;6245266;23;20095;-84
2022/11/07 08:10:19;;;;;;;11.95;2.53;;;10.50;99.90;;;;;;6246392;23;20099;-86
2022/11/07 08:13:28;;;;;;;5.75;2.05;;;10.60;99.90;;;;;;6229467;23;20024;-87
2022/11/07 08:16:21;;;;;;;8.00;2.72;;;10.60;99.90;;;;;;6245546;23;20423;-84
2022/11/07 08:19:22;;;;;;;8.05;2.28;;;10.60;99.90;;;;;;6243918;23;20020;-84
2022/11/07 08:22:10;;;;;;;10.70;2.33;;;10.60;99.90;;;;;;6247246;22;20028;-84
2022/11/07 08:24:57;;;;;;;6.40;2.00;;;10.60;92.70;;;;;;6223221;23;20532;-87
2022/11/07 08:27:47;;;;;;;7.68;2.22;;;10.70;39.40;;;;;;6244132;23;20315;-85
2022/11/07 08:30:37;;;;;;;9.38;2.42;;;10.80;1.00;;;;;;6244131;23;20024;-86
2022/11/07 08:33:30;;;;;;;4.50;2.47;;;10.80;1.00;;;;;;6243548;23;20020;-85
2022/11/07 08:36:22;;;;;;;11.18;2.60;;;10.80;1.00;;;;;;6243642;23;20412;-82
2022/11/07 08:39:09;;;;;;;6.18;2.88;;;10.70;1.00;;;;;;6244254;23;20024;-83
2022/11/07 08:42:03;;;;;;;10.07;2.00;;;10.70;1.00;;;;;;6247551;23;20320;-82
2022/11/07 08:44:53;;;;;;;7.00;1.90;;;10.70;1.00;;;;;;6249253;23;20090;-81
2022/11/07 08:47:41;;;;;;;9.30;2.10;;;10.70;1.00;;;;;;6247115;23;20024;-81
2022/11/07 08:50:31;;;;;;;6.97;2.05;;;10.80;1.00;;;;;;6247309;23;20048;-83
2022/11/07 08:53:20;;;;;;;12.65;2.42;;;10.80;1.00;;;;;;6248874;23;20020;-82
2022/11/07 08:56:09;;;;;;;5.50;2.15;;;11.00;1.00;;;;;;6248982;22;20031;-82
2022/11/07 08:58:56;;;;;;;7.97;2.17;;;11.10;1.00;;;;;;6247731;22;20123;-82
2022/11/07 09:01:43;;;;;;;13.48;2.28;;;11.20;1.00;;;;;;6242615;23;20115;-83
2022/11/07 09:04:50;;;;;;;8.57;1.80;;;11.30;99.90;;;;;;6244723;23;20028;-83
2022/11/07 09:07:38;;;;;;;6.13;2.30;;;11.30;99.90;;;;;;6243414;23;20136;-83
2022/11/07 09:10:27;;;;;;;9.48;2.35;;;11.40;99.90;;;;;;6244063;23;20031;-84
2022/11/07 09:13:16;;;;;;;7.78;2.15;;;11.40;99.90;;;;;;6242415;23;20143;-84
2022/11/07 09:16:05;;;;;;;10.10;2.20;;;11.40;99.90;;;;;;6245585;23;20031;-83
2022/11/07 09:18:52;;;;;;;6.72;2.42;;;11.40;99.90;;;;;;6245338;23;20035;-85
2022/11/07 09:21:41;;;;;;;7.63;2.03;;;11.50;99.90;;;;;;6246329;23;20024;-84
2022/11/07 09:24:28;;;;;;;6.18;2.13;;;11.60;99.90;;;;;;6247661;23;20035;-84
2022/11/07 09:27:15;;;;;;;5.35;1.67;;;11.90;99.90;;;;;;6249511;22;20078;-82
2022/11/07 09:30:04;;;;;;;8.57;2.10;;;12.30;99.90;;;;;;6248235;23;20032;-84
2022/11/07 09:33:02;;;;;;;7.43;2.08;;;12.50;99.90;;;;;;6249444;23;20497;-87
2022/11/07 09:35:52;;;;;;;6.90;2.25;;;12.30;60.30;;;;;;6249040;22;20039;-86
2022/11/07 09:38:40;;;;;;;9.43;2.30;;;12.20;68.10;;;;;;6247787;23;20020;-84
2022/11/07 09:41:46;;;;;;;9.13;2.22;;;12.00;48.50;;;;;;6250041;22;20031;-84
2022/11/07 09:44:42;;;;;;;7.05;2.42;;;11.90;78.70;;;;;;6250372;22;20042;-85
2022/11/07 09:47:36;;;;;;;11.73;2.20;;;11.70;94.80;;;;;;6249263;23;20154;-85
2022/11/07 09:50:34;;;;;;;6.28;2.15;;;11.70;99.90;;;;;;6246102;23;20074;-84
2022/11/07 09:53:28;;;;;;;6.93;2.10;;;11.60;99.90;;;;;;6247672;22;20078;-83
2022/11/07 09:56:16;;;;;;;6.50;2.60;;;11.50;99.90;;;;;;6246829;23;20082;-85
2022/11/07 09:59:07;;;;;;;10.45;2.70;;;11.60;99.90;;;;;;6248901;23;20092;-82
2022/11/07 10:02:05;;;;;;;7.82;3.22;;;11.60;99.90;;;;;;6248709;23;20052;-82
2022/11/07 10:04:57;;;;;;;6.50;1.92;;;11.60;99.90;;;;;;6246871;23;20437;-84
2022/11/07 10:08:28;;;;;;;7.35;2.45;;;11.60;99.90;;;;;;6246787;23;20020;-82
2022/11/07 10:11:34;;;;;;;10.57;2.35;;;11.70;99.90;;;;;;6156448;23;20040;-82
2022/11/07 10:14:33;;;;;;;10.20;1.90;;;11.80;99.90;;;;;;6155055;23;20025;-82
2022/11/07 10:17:26;;;;;;;12.13;2.15;;;11.80;99.90;;;;;;6246685;23;20016;-82
2022/11/07 10:20:19;;;;;;;12.63;1.73;;;11.90;99.90;;;;;;6247377;22;20107;-82
2022/11/07 10:23:34;;;;;;;12.10;2.40;;;11.80;99.90;;;;;;6248957;23;20107;-83
2022/11/07 10:26:25;;;;;;;8.13;2.27;;;11.80;89.50;;;;;;6248118;22;20028;-86
2022/11/07 10:29:17;;;;;;;11.82;2.38;;;11.90;87.20;;;;;;6247834;22;20097;-88
2022/11/07 10:32:08;;;;;;;8.93;2.20;;;12.00;65.70;;;;;;6244910;23;20130;-85
2022/11/07 10:35:25;;;;;;;11.70;2.35;;;12.20;62.40;;;;;;6246554;23;20021;-85
2022/11/07 10:38:22;;;;;;;5.32;1.83;;;12.50;25.70;;;;;;6242382;23;20120;-83
2022/11/07 10:41:28;;;;;;;7.20;1.85;;;12.80;1.00;;;;;;6246651;23;20092;-85
2022/11/07 10:44:28;;;;;;;5.22;2.08;;;13.00;1.00;;;;;;6247017;23;20474;-83
2022/11/07 10:47:24;;;;;;;7.82;1.73;;;13.00;1.00;;;;;;6245837;23;20365;-84
2022/11/07 10:50:38;;;;;;;8.65;2.30;;;13.00;1.00;;;;;;6248275;22;20032;-84
2022/11/07 10:53:26;;;;;;;6.75;1.63;;;12.80;1.00;;;;;;6246100;23;20051;-86
2022/11/07 10:56:18;;;;;;;9.05;2.20;;;12.90;1.00;;;;;;6246040;22;20028;-84
2022/11/07 10:59:12;;;;;;;4.53;1.50;;;13.00;1.00;;;;;;6245376;23;20043;-85
2022/11/07 11:02:12;;;;;;;9.93;1.60;;;12.90;1.00;;;;;;6244706;23;20686;-83
2022/11/07 11:05:01;;;;;;;7.75;1.80;;;12.90;1.00;;;;;;6245831;23;20134;-83
2022/11/07 11:07:49;;;;;;;8.07;1.50;;;12.90;1.00;;;;;;6248304;23;20036;-84
2022/11/07 11:10:38;;;;;;;8.50;1.40;;;13.00;1.00;;;;;;6248889;23;20098;-84
2022/11/07 11:13:31;;;;;;;9.45;1.92;;;13.00;1.00;;;;;;6225069;23;20094;-83
2022/11/07 11:16:25;;;;;;;5.43;1.80;;;13.20;1.00;;;;;;6245220;23;20062;-82
2022/11/07 11:19:27;;;;;;;3.67;1.10;;;13.60;1.00;;;;;;6244147;23;20082;-83
2022/11/07 11:22:17;;;;;;;3.97;1.67;;;14.00;99.90;;;;;;6246149;23;20020;-82
2022/11/07 11:25:22;;;;;;;6.30;1.73;;;14.20;99.90;;;;;;6245734;23;20066;-81
2022/11/07 11:28:23;;;;;;;6.50;1.70;;;14.00;99.90;;;;;;6246018;23;20024;-82
2022/11/07 11:31:55;;;;;;;2.00;1.20;;;14.20;99.90;;;;;;6243901;23;20046;-82
2022/11/07 11:34:54;;;;;;;5.18;1.80;;;14.30;99.90;;;;;;6210804;22;20028;-82
2022/11/07 11:37:49;;;;;;;4.63;1.38;;;14.30;99.90;;;;;;6244737;23;20142;-81
2022/11/07 11:40:40;;;;;;;3.95;1.40;;;14.20;99.90;;;;;;6245413;23;20066;-82
2022/11/07 11:44:05;;;;;;;5.15;1.10;;;14.00;99.90;;;;;;6246807;23;20127;-84
2022/11/07 11:47:10;;;;;;;4.22;1.10;;;14.20;99.90;;;;;;6204180;23;20024;-84
2022/11/07 11:50:15;;;;;;;6.78;1.75;;;14.60;99.90;;;;;;6244841;23;20089;-82
2022/11/07 11:53:06;;;;;;;10.90;1.80;;;14.90;99.90;;;;;;6243110;23;20039;-83
2022/11/07 11:56:23;;;;;;;5.40;1.48;;;14.70;99.90;;;;;;6245305;23;20082;-82
2022/11/07 11:59:43;;;;;;;5.88;1.30;;;14.30;99.90;;;;;;6245424;23;20070;-82
2022/11/07 12:03:13;;;;;;;8.60;1.55;;;14.20;99.90;;;;;;6246094;23;20025;-83
2022/11/07 12:06:10;;;;;;;6.43;1.25;;;14.40;99.90;;;;;;6243674;23;20323;-85
2022/11/07 12:09:06;;;;;;;6.00;1.13;;;14.60;99.90;;;;;;6244743;23;20027;-84
2022/11/07 12:12:14;;;;;;;7.28;1.60;;;15.10;99.90;;;;;;6245848;23;20423;-85
2022/11/07 12:15:21;;;;;;;5.93;1.45;;;15.10;99.90;;;;;;6245329;22;20020;-83
2022/11/07 12:18:11;;;;;;;3.38;1.10;;;16.20;99.90;;;;;;6244963;23;20027;-81
2022/11/07 12:21:32;;;;;;;6.60;1.70;;;16.90;99.90;;;;;;6246604;23;20099;-85
2022/11/07 12:24:55;;;;;;;6.43;1.35;;;17.50;99.90;;;;;;6245146;23;20063;-83
2022/11/07 12:28:11;;;;;;;5.65;1.27;;;17.70;99.90;;;;;;6243797;23;20055;-85
2022/11/07 12:31:19;;;;;;;8.98;1.10;;;18.50;99.90;;;;;;6246464;22;20024;-82
2022/11/07 12:34:31;;;;;;;4.53;1.20;;;18.80;99.90;;;;;;6245859;23;20052;-84
2022/11/07 12:37:48;;;;;;;4.97;1.38;;;19.00;99.90;;;;;;6245307;23;20024;-83
2022/11/07 12:40:59;;;;;;;4.10;1.40;;;17.60;99.90;;;;;;6182897;23;20020;-82
2022/11/07 12:44:01;;;;;;;3.58;1.00;;;17.80;99.90;;;;;;6161174;23;20111;-84
2022/11/07 12:46:55;;;;;;;5.38;1.48;;;17.70;99.90;;;;;;6161842;23;20025;-81
2022/11/07 12:50:16;;;;;;;4.45;1.05;;;17.90;99.90;;;;;;6181499;23;20029;-84
2022/11/07 12:53:36;;;;;;;4.50;1.65;;;17.30;99.90;;;;;;6167829;23;20400;-82
2022/11/07 12:56:33;;;;;;;7.35;1.27;;;16.40;99.90;;;;;;6186751;23;20105;-83
2022/11/07 12:59:37;;;;;;;7.28;1.08;;;15.60;99.90;;;;;;6185276;23;20091;-81
2022/11/07 13:02:33;;;;;;;5.07;1.52;;;15.40;99.90;;;;;;6163036;23;20444;-81
2022/11/07 13:05:45;;;;;;;5.75;1.25;;;15.10;99.90;;;;;;6218500;23;20043;-84
2022/11/07 13:08:45;;;;;;;2.78;1.75;;;15.00;99.90;;;;;;6248849;22;20605;-81
2022/11/07 13:12:05;;;;;;;8.05;1.73;;;14.80;99.90;;;;;;6245205;23;20028;-82
2022/11/07 13:14:53;;;;;;;4.60;1.63;;;14.70;99.90;;;;;;6248475;22;20447;-84
2022/11/07 13:17:43;;;;;;;5.97;1.45;;;14.90;99.90;;;;;;6247713;23;20020;-83
2022/11/07 13:20:33;;;;;;;4.38;1.17;;;15.00;99.90;;;;;;6245509;23;20024;-82
2022/11/07 13:23:26;;;;;;;6.60;1.70;;;15.10;99.90;;;;;;6244750;23;20020;-85
2022/11/07 13:26:27;;;;;;;3.97;1.45;;;15.30;99.90;;;;;;6248952;22;20419;-84
2022/11/07 13:29:36;;;;;;;5.90;1.33;;;15.60;99.90;;;;;;6247447;23;20039;-86
2022/11/07 13:32:24;;;;;;;4.88;1.30;;;16.30;99.90;;;;;;6245515;23;20039;-84
2022/11/07 13:35:26;;;;;;;4.50;1.30;;;15.90;99.90;;;;;;6245921;23;20028;-84
2022/11/07 13:38:22;;;;;;;7.00;1.42;;;15.40;99.90;;;;;;6246556;23;20097;-82
2022/11/07 13:41:10;;;;;;;6.93;1.50;;;15.30;99.90;;;;;;6246303;23;20024;-84
2022/11/07 13:44:24;;;;;;;6.10;1.35;;;15.00;99.90;;;;;;6248077;23;20039;-84
2022/11/07 13:47:20;;;;;;;7.35;1.58;;;14.80;99.90;;;;;;6247089;23;20281;-84
2022/11/07 13:50:18;;;;;;;6.10;1.60;;;14.50;99.90;;;;;;6245475;23;20056;-81
2022/11/07 13:53:18;;;;;;;10.00;1.40;;;14.40;99.90;;;;;;6245143;23;20028;-81
2022/11/07 13:56:21;;;;;;;4.95;1.10;;;14.20;99.90;;;;;;6245582;23;20086;-81
2022/11/07 13:59:27;;;;;;;4.60;1.33;;;14.20;99.90;;;;;;6246029;22;20495;-81
2022/11/07 14:02:26;;;;;;;4.30;1.23;;;14.30;99.90;;;;;;6243868;23;20028;-81
2022/11/07 14:05:14;;;;;;;6.60;1.70;;;14.20;99.90;;;;;;6248243;22;20028;-83
2022/11/07 14:08:16;;;;;;;5.40;1.38;;;14.10;99.90;;;;;;6246085;23;20028;-84
2022/11/07 14:11:24;;;;;;;3.25;1.20;;;14.00;99.90;;;;;;6246595;23;20059;-84
2022/11/07 14:14:15;;;;;;;4.82;1.23;;;13.90;99.90;;;;;;6245359;23;20039;-83
2022/11/07 14:17:13;;;;;;;4.82;1.42;;;13.80;99.90;;;;;;6246349;23;20315;-84
2022/11/07 14:20:28;;;;;;;;;;;;;;;;;;;;;
2022/11/07 14:23:21;;;;;;;3.47;1.48;;;13.70;99.90;;;;;;6245718;23;20032;-83
2022/11/07 14:26:26;;;;;;;8.20;3.10;;;13.50;99.90;;;;;;6245319;23;20404;-83
2022/11/07 14:29:21;;;;;;;8.13;2.08;;;13.60;99.90;;;;;;6226606;23;20450;-84
2022/11/07 14:32:16;;;;;;;6.95;2.20;;;13.60;99.90;;;;;;6244970;23;20028;-83
2022/11/07 14:35:07;;;;;;;5.90;2.30;;;13.50;99.90;;;;;;6245574;23;20031;-86
2022/11/07 14:37:56;;;;;;;3.78;2.05;;;13.40;99.90;;;;;;6246168;23;20099;-86
2022/11/07 14:40:52;;;;;;;6.65;1.63;;;13.30;99.90;;;;;;6247734;22;20334;-86
2022/11/07 14:43:46;;;;;;;5.93;1.38;;;13.20;99.90;;;;;;6244183;23;20423;-82
2022/11/07 14:46:46;;;;;;;5.45;1.50;;;13.20;99.90;;;;;;6244800;23;20445;-82
2022/11/07 14:50:08;;;;;;;5.15;1.20;;;13.20;99.90;;;;;;6244156;23;20415;-85
2022/11/07 14:53:05;;;;;;;10.23;1.58;;;13.10;99.90;;;;;;6247844;22;20367;-85
2022/11/07 14:55:58;;;;;;;6.97;1.67;;;13.20;99.90;;;;;;6247056;22;20328;-87
2022/11/07 14:58:46;;;;;;;4.00;1.30;;;13.10;99.90;;;;;;6246796;23;20392;-85
2022/11/07 15:01:33;;;;;;;5.43;1.40;;;13.10;99.90;;;;;;6248439;23;20020;-87
2022/11/07 15:04:33;;;;;;;4.90;1.52;;;13.10;99.90;;;;;;6246054;23;20035;-84
2022/11/07 15:07:28;;;;;;;4.30;1.27;;;13.10;99.90;;;;;;6254106;23;20411;-84
2022/11/07 15:10:29;;;;;;;3.83;1.10;;;13.00;99.90;;;;;;6250632;22;20032;-85
2022/11/07 15:13:24;;;;;;;8.02;1.67;;;12.90;99.90;;;;;;6248133;23;20031;-85
2022/11/07 15:16:21;;;;;;;8.77;1.70;;;12.90;99.90;;;;;;6253236;23;20016;-87
2022/11/07 15:19:22;;;;;;;10.35;2.25;;;12.80;99.90;;;;;;6248370;23;20020;-84
2022/11/07 15:22:36;;;;;;;6.55;2.60;;;12.70;99.90;;;;;;6246659;23;20024;-84
2022/11/07 15:25:27;;;;;;;8.68;2.00;;;12.70;99.90;;;;;;6246551;23;20024;-85
2022/11/07 15:28:26;;;;;;;4.28;1.80;;;12.60;99.90;;;;;;6247793;22;20036;-85
2022/11/07 15:31:28;;;;;;;5.97;1.67;;;12.60;99.90;;;;;;6248581;23;20024;-83
2022/11/07 15:34:21;;;;;;;;;;;12.50;99.90;;;;;;6249144;23;20024;-85